Gracewood, Georgia
Current Conditions -  °F | °C
As of 4:53 PM on Saturday 25 Oct 2014 (Local Time) from KAGS Reporting Station
Clear Clear  
Wind Chill: 78°   Ceiling: Unl
Heat Index: 78°   Visibility: 10mi
Dew Point: 37°   Wind: 7mph
Humidity: 23%   Direction: 330°NNW
Pressure: 29.95"   Gusts: NA
Location:  33.37°N, 82.03°W
Report Text: KAGS 252053Z 33006KT 10SM CLR 26/03 A2995 RMK AO2 SLP142 T02560028 56016
Loading
Personal Weather Stations






























Interactive Weather Map
Tropical Storm Tracking
New forecast layout! Learn more

10-Day Weather Forecast

Advertisements
Track Severe Weather on mobile